Neesea Larae — WDG3605 — position and weather

sailwx.info

Track history (hours):
 
Tides and Currents Weather Stations Pressure Air Temp Water Temp Dewpoint Dewpoint Depression Visibility Wind Speed Wind Dir Waves Ship Positions

Neesea Larae

More information available from US FCC via Universal Licensing System and Coast Guard Vessel Documentation Center.

Last reported at 2014-Jul-27 19:43 UTC. Time now 2014-Aug-01 03:46 UTC.
Position N 47°47' W 122°24'.

Type: Pleasure craft. MMSI: 367527770.

Date/timePositionNaut miles runAvg speedWind from/ knotsBaromVisibWave heightAir tempDewpointWater temp
2014-Jul-27 19:43N 47°47' W 122°24'2 9.7
2014-Jul-27 19:33N 47°46' W 122°25'0 0.0
2014-Jul-27 19:33N 47°46' W 122°25'9 8.5
2014-Jul-27 18:30N 47°37' W 122°23'0 8.2
2014-Jul-27 18:27N 47°37' W 122°22'0 0.0
2014-Jul-25 22:47N 47°37' W 122°22'3 9.1
2014-Jul-25 22:27N 47°39' W 122°26'0 8.2
2014-Jul-25 22:26N 47°39' W 122°26'8 9.3
2014-Jul-25 21:33N 47°47' W 122°24'  
2014-Jul-21 19:19N 47°49' W 122°23'3 3.9
2014-Jul-21 18:33N 47°52' W 122°23'  
2014-Jul-18 21:33N 48°28' W 122°31'7 6.8
2014-Jul-18 20:32N 48°32' W 122°40'8 8.4
2014-Jul-18 19:33N 48°34' W 122°52'  
Track history (hours):
 
Tides and Currents Weather Stations Pressure Air Temp Water Temp Dewpoint Dewpoint Depression Visibility Wind Speed Wind Dir Waves Ship Positions

Neesea Larae

More information available from US FCC via Universal Licensing System and Coast Guard Vessel Documentation Center.

Last reported at 2014-Jul-27 19:43 UTC. Time now 2014-Aug-01 03:46 UTC.
Position N 47°47' W 122°24'.

Type: Pleasure craft. MMSI: 367527770.

Date/timePositionNaut miles runAvg speedWind from/ knotsBaromVisibWave heightAir tempDewpointWater temp
2014-Jul-27 19:43N 47°47' W 122°24'2 9.7
2014-Jul-27 19:33N 47°46' W 122°25'0 0.0
2014-Jul-27 19:33N 47°46' W 122°25'9 8.5
2014-Jul-27 18:30N 47°37' W 122°23'0 8.2
2014-Jul-27 18:27N 47°37' W 122°22'0 0.0
2014-Jul-25 22:47N 47°37' W 122°22'3 9.1
2014-Jul-25 22:27N 47°39' W 122°26'0 8.2
2014-Jul-25 22:26N 47°39' W 122°26'8 9.3
2014-Jul-25 21:33N 47°47' W 122°24'  
2014-Jul-21 19:19N 47°49' W 122°23'3 3.9
2014-Jul-21 18:33N 47°52' W 122°23'  
2014-Jul-18 21:33N 48°28' W 122°31'7 6.8
2014-Jul-18 20:32N 48°32' W 122°40'8 8.4
2014-Jul-18 19:33N 48°34' W 122°52'  

Dump ship's entire track history